createdAt,value
2018-11-12T00:00:54.173Z,8.40
2018-11-12T00:05:58.407Z,8.50
2018-11-12T00:11:02.305Z,7.83
2018-11-12T00:16:11.728Z,8.63
2018-11-12T00:21:16.288Z,8.17
2018-11-12T00:26:20.144Z,8.13
2018-11-12T00:31:24.258Z,8.93
2018-11-12T00:36:27.796Z,9.20
2018-11-12T00:41:31.458Z,8.43
2018-11-12T00:46:35.856Z,9.83
2018-11-12T00:51:39.809Z,10.07
2018-11-12T00:56:44.023Z,8.40
2018-11-12T01:01:48.314Z,9.23
2018-11-12T01:06:52.323Z,9.60
2018-11-12T01:11:56.694Z,9.80
2018-11-12T01:17:00.678Z,10.17
2018-11-12T01:22:04.564Z,10.83
2018-11-12T01:27:08.636Z,12.33
2018-11-12T01:32:12.327Z,12.00
2018-11-12T01:37:16.466Z,12.47
2018-11-12T01:42:20.662Z,12.73
2018-11-12T01:47:24.799Z,9.63
2018-11-12T01:52:28.440Z,11.80
2018-11-12T01:57:32.399Z,10.50
2018-11-12T02:02:36.335Z,11.57
2018-11-12T02:07:40.614Z,12.60
2018-11-12T02:12:44.994Z,16.30
2018-11-12T02:17:49.233Z,11.50
2018-11-12T02:22:53.145Z,9.30
2018-11-12T02:27:57.026Z,10.63
2018-11-12T02:33:00.882Z,12.97
2018-11-12T02:38:04.516Z,13.53
2018-11-12T02:43:11.634Z,13.60
2018-11-12T02:48:16.016Z,11.90
2018-11-12T02:53:21.649Z,10.90
2018-11-12T02:58:25.011Z,11.23
2018-11-12T03:03:28.914Z,14.37
2018-11-12T03:08:33.066Z,12.43
2018-11-12T03:13:37.524Z,10.97
2018-11-12T03:18:41.242Z,10.70
2018-11-12T03:23:45.325Z,11.27
2018-11-12T03:28:49.060Z,10.40
2018-11-12T03:33:52.714Z,10.60
2018-11-12T03:38:56.554Z,13.43
2018-11-12T03:44:00.853Z,7.73
2018-11-12T03:49:05.391Z,13.27
2018-11-12T03:54:09.551Z,12.60
2018-11-12T03:59:13.766Z,11.13
2018-11-12T04:04:17.795Z,15.90
2018-11-12T04:09:21.691Z,15.40
2018-11-12T04:14:26.216Z,15.63
2018-11-12T04:19:30.119Z,15.83
2018-11-12T04:24:33.744Z,15.43
2018-11-12T04:29:37.719Z,15.53
2018-11-12T04:34:41.499Z,19.13
2018-11-12T04:39:46.144Z,15.17
2018-11-12T04:44:49.934Z,16.00
2018-11-12T04:49:54.291Z,15.77
2018-11-12T04:54:58.763Z,15.50
2018-11-12T05:00:02.527Z,24.60
2018-11-12T05:05:06.902Z,24.70
2018-11-12T05:10:12.444Z,17.67
2018-11-12T05:15:17.591Z,14.30
2018-11-12T05:20:29.869Z,17.27
2018-11-12T05:25:33.811Z,17.03
2018-11-12T05:30:37.301Z,21.87
2018-11-12T05:35:41.092Z,19.90
2018-11-12T05:40:44.917Z,18.23
2018-11-12T05:45:48.731Z,22.37
2018-11-12T05:50:52.104Z,24.73
2018-11-12T05:55:55.846Z,22.07
2018-11-12T06:00:59.351Z,21.80
2018-11-12T06:06:03.146Z,19.43
2018-11-12T06:11:07.150Z,20.73
2018-11-12T06:16:10.942Z,22.67
2018-11-12T06:21:14.894Z,27.83
2018-11-12T06:26:18.542Z,24.30
2018-11-12T06:31:21.990Z,26.53
2018-11-12T06:36:26.225Z,23.30
2018-11-12T06:41:30.017Z,21.93
2018-11-12T06:46:33.877Z,19.70
2018-11-12T06:51:37.922Z,24.13
2018-11-12T06:56:41.871Z,24.70
2018-11-12T07:01:45.790Z,36.93
2018-11-12T07:06:49.678Z,23.97
2018-11-12T07:11:53.066Z,24.23
2018-11-12T07:16:56.795Z,28.83
2018-11-12T07:22:00.473Z,23.37
2018-11-12T07:27:04.416Z,26.00
2018-11-12T07:32:08.082Z,24.67
2018-11-12T07:37:11.535Z,20.97
2018-11-12T07:42:15.331Z,28.70
2018-11-12T07:47:18.925Z,23.97
2018-11-12T07:52:22.398Z,24.03
2018-11-12T07:57:27.030Z,24.33
2018-11-12T08:07:40.937Z,24.90
2018-11-12T08:12:44.991Z,25.30
2018-11-12T08:17:48.651Z,32.33
2018-11-12T08:22:52.303Z,26.70
2018-11-12T08:27:58.865Z,24.73
2018-11-12T08:33:03.050Z,28.83
2018-11-12T08:38:06.510Z,24.70
2018-11-12T08:43:10.314Z,28.93
2018-11-12T08:48:17.915Z,30.50
2018-11-12T08:53:21.823Z,30.00
2018-11-12T08:58:25.914Z,28.23
2018-11-12T09:03:29.550Z,32.20
2018-11-12T09:08:36.312Z,28.07
2018-11-12T09:13:40.132Z,30.93
2018-11-12T09:18:43.887Z,35.63
2018-11-12T09:23:47.262Z,37.27
2018-11-12T09:28:50.839Z,28.17
2018-11-12T09:44:02.825Z,33.43
2018-11-12T09:49:06.999Z,33.67
2018-11-12T09:54:10.561Z,31.37
2018-11-12T09:59:14.106Z,30.90
2018-11-12T10:04:18.055Z,27.40
2018-11-12T10:09:23.861Z,42.90
2018-11-12T10:14:28.878Z,30.17
2018-11-12T10:19:29.978Z,30.30
2018-11-12T10:24:33.390Z,23.17
2018-11-12T10:29:36.821Z,33.37
2018-11-12T10:34:40.478Z,25.57
2018-11-12T10:39:50.198Z,26.80
2018-11-12T10:44:54.187Z,32.43
2018-11-12T10:49:57.809Z,39.37
2018-11-12T10:55:05.629Z,24.77
2018-11-12T11:00:21.204Z,25.33
2018-11-12T11:05:25.065Z,24.23
2018-11-12T11:10:29.317Z,27.60
2018-11-12T11:15:40.544Z,27.30
2018-11-12T11:20:44.931Z,22.17
2018-11-12T11:25:48.929Z,19.60
2018-11-12T11:30:52.451Z,20.37
2018-11-12T11:35:55.864Z,20.10
2018-11-12T11:41:03.039Z,15.53
2018-11-12T11:46:12.423Z,15.23
2018-11-12T11:51:16.071Z,17.73
2018-11-12T11:56:19.533Z,14.00
2018-11-12T12:01:22.990Z,15.40
2018-11-12T12:06:26.643Z,16.07
2018-11-12T12:11:30.311Z,11.10
2018-11-12T12:16:34.291Z,10.00
2018-11-12T12:21:42.741Z,12.10
2018-11-12T12:26:51.679Z,10.20
2018-11-12T12:31:55.914Z,11.70
2018-11-12T12:36:59.361Z,22.20
2018-11-12T12:42:02.681Z,14.00
2018-11-12T12:47:06.179Z,11.17
2018-11-12T12:52:10.093Z,16.60
2018-11-12T12:57:37.006Z,14.60
2018-11-12T13:02:42.286Z,11.80
2018-11-12T13:07:47.655Z,13.40
2018-11-12T13:13:05.400Z,11.37
2018-11-12T13:18:09.561Z,14.63
2018-11-12T13:23:13.793Z,16.37
2018-11-12T13:28:17.666Z,14.43
2018-11-12T13:33:21.129Z,14.47
2018-11-12T13:38:24.887Z,24.23
2018-11-12T13:43:28.476Z,15.60
2018-11-12T13:48:31.869Z,19.10
2018-11-12T13:53:35.200Z,16.50
2018-11-12T13:58:38.819Z,17.83
2018-11-12T14:03:43.008Z,17.87
2018-11-12T14:08:46.678Z,17.90
2018-11-12T14:13:50.098Z,14.23
2018-11-12T14:19:01.354Z,14.57
2018-11-12T14:24:06.025Z,14.83
2018-11-12T14:29:09.358Z,17.10
2018-11-12T14:34:13.049Z,30.57
2018-11-12T14:39:16.625Z,13.93
2018-11-12T14:44:20.242Z,14.27
2018-11-12T14:49:23.622Z,12.33
2018-11-12T14:54:26.958Z,11.50
2018-11-12T14:59:30.550Z,12.80
2018-11-12T15:04:34.269Z,10.70
2018-11-12T15:09:37.882Z,12.00
2018-11-12T15:14:41.316Z,13.97
2018-11-12T15:19:45.148Z,13.17
2018-11-12T15:24:51.591Z,13.60
2018-11-12T15:29:54.918Z,15.10
2018-11-12T15:34:59.812Z,10.30
2018-11-12T15:40:07.253Z,10.60
2018-11-12T15:45:13.462Z,13.50
2018-11-12T15:50:27.326Z,10.50
2018-11-12T15:55:30.744Z,13.53
2018-11-12T16:00:34.134Z,10.50
2018-11-12T16:05:37.633Z,8.47
2018-11-12T16:10:41.634Z,9.57
2018-11-12T16:15:45.016Z,12.83
2018-11-12T16:20:48.413Z,10.73
2018-11-12T16:25:51.750Z,26.00
2018-11-12T16:30:55.358Z,33.53
2018-11-12T16:35:59.284Z,37.03
2018-11-12T16:41:02.843Z,24.57
2018-11-12T16:46:07.178Z,23.80
2018-11-12T16:51:13.305Z,11.13
2018-11-12T16:56:25.471Z,18.60
2018-11-12T17:01:29.505Z,13.30
2018-11-12T17:06:36.656Z,14.87
2018-11-12T17:11:43.093Z,12.73
2018-11-12T17:16:47.134Z,12.10
2018-11-12T17:21:50.510Z,22.30
2018-11-12T17:26:54.074Z,17.60
2018-11-12T17:31:58.122Z,15.23
2018-11-12T17:37:01.526Z,12.70
2018-11-12T17:42:05.127Z,15.27
2018-11-12T17:47:11.629Z,9.50
2018-11-12T17:52:15.475Z,21.93
2018-11-12T17:57:19.382Z,22.97
2018-11-12T18:02:22.785Z,25.93
2018-11-12T18:07:29.388Z,31.20
2018-11-12T18:12:33.331Z,32.10
2018-11-12T18:17:36.884Z,33.60
2018-11-12T18:22:40.689Z,28.70
2018-11-12T18:27:44.665Z,27.27
2018-11-12T18:32:49.222Z,27.03
2018-11-12T18:37:52.657Z,27.20
2018-11-12T18:42:56.348Z,27.30
2018-11-12T18:48:00.236Z,33.80
2018-11-12T18:53:03.782Z,37.17
2018-11-12T18:58:09.147Z,19.27
2018-11-12T19:03:12.870Z,37.73
2018-11-12T19:08:16.515Z,28.43
2018-11-12T19:13:19.971Z,42.13
2018-11-12T19:18:23.495Z,44.90
2018-11-12T19:23:27.038Z,38.70
2018-11-12T19:28:30.383Z,40.70
2018-11-12T19:33:33.891Z,38.67
2018-11-12T19:38:38.470Z,41.07
2018-11-12T19:43:41.960Z,36.10
2018-11-12T19:48:45.567Z,34.40
2018-11-12T19:53:48.981Z,34.50
2018-11-12T19:59:07.527Z,29.03
2018-11-12T20:04:12.212Z,30.10
2018-11-12T20:09:16.710Z,29.73
2018-11-12T20:14:20.725Z,20.03
2018-11-12T20:19:24.704Z,27.00
2018-11-12T20:24:28.218Z,12.87
2018-11-12T20:29:31.642Z,13.13
2018-11-12T20:34:35.122Z,14.43
2018-11-12T20:39:38.497Z,14.37
2018-11-12T20:44:42.350Z,14.80
2018-11-12T20:49:46.071Z,19.17
2018-11-12T20:54:50.045Z,26.10
2018-11-12T20:59:54.140Z,23.30
2018-11-12T21:05:01.753Z,30.60
2018-11-12T21:10:06.475Z,38.63
2018-11-12T21:15:11.863Z,32.83
2018-11-12T21:20:19.355Z,33.10
2018-11-12T21:25:24.316Z,35.13
2018-11-12T21:30:28.604Z,37.80
2018-11-12T21:35:31.967Z,33.03
2018-11-12T21:40:35.626Z,47.13
2018-11-12T21:45:39.416Z,29.57
2018-11-12T21:50:43.370Z,23.80
2018-11-12T21:55:46.728Z,31.77
2018-11-12T22:00:50.402Z,14.47
2018-11-12T22:05:53.798Z,23.37
2018-11-12T22:10:57.415Z,15.57
2018-11-12T22:16:01.255Z,15.00
2018-11-12T22:21:05.079Z,16.00
2018-11-12T22:26:08.509Z,13.53
2018-11-12T22:31:11.839Z,11.90
2018-11-12T22:36:15.241Z,11.40
2018-11-12T22:41:19.258Z,12.00
2018-11-12T22:46:22.610Z,11.30
2018-11-12T22:51:25.978Z,12.23
2018-11-12T22:56:29.382Z,11.57
2018-11-12T23:01:32.770Z,12.40
2018-11-12T23:06:36.386Z,10.90
2018-11-12T23:11:41.239Z,11.37
2018-11-12T23:16:44.877Z,11.10
2018-11-12T23:21:48.786Z,13.47
2018-11-12T23:26:53.036Z,7.90
2018-11-12T23:31:58.526Z,13.20
2018-11-12T23:37:03.824Z,11.50
2018-11-12T23:42:09.443Z,11.33
2018-11-12T23:47:13.210Z,16.63
2018-11-12T23:52:17.444Z,13.73
2018-11-12T23:57:21.416Z,12.67
